createdAt,value
2022-08-21T00:00:31.521Z,20.60
2022-08-21T00:03:00.259Z,20.70
2022-08-21T00:05:28.641Z,20.90
2022-08-21T00:07:57.935Z,20.90
2022-08-21T00:10:25.709Z,20.70
2022-08-21T00:12:53.507Z,20.90
2022-08-21T00:15:23.367Z,20.80
2022-08-21T00:17:51.183Z,20.50
2022-08-21T00:20:19.201Z,20.20
2022-08-21T00:22:47.427Z,20.00
2022-08-21T00:25:16.690Z,20.00
2022-08-21T00:27:47.583Z,20.20
2022-08-21T00:30:22.744Z,20.20
2022-08-21T00:32:51.641Z,20.40
2022-08-21T00:35:20.586Z,20.50
2022-08-21T00:37:48.348Z,20.80
2022-08-21T00:40:19.525Z,21.00
2022-08-21T00:42:53.167Z,21.20
2022-08-21T00:45:21.820Z,21.50
2022-08-21T00:47:49.571Z,21.50
2022-08-21T00:50:21.534Z,21.70
2022-08-21T00:52:51.607Z,21.70
2022-08-21T00:55:23.473Z,21.60
2022-08-21T00:57:52.678Z,21.60
2022-08-21T01:00:22.276Z,21.70
2022-08-21T01:02:50.024Z,21.80
2022-08-21T01:05:18.308Z,22.00
2022-08-21T01:07:46.119Z,22.00
2022-08-21T01:10:24.208Z,22.20
2022-08-21T01:12:55.980Z,22.30
2022-08-21T01:15:24.800Z,22.30
2022-08-21T01:17:53.047Z,22.40
2022-08-21T01:20:20.777Z,22.20
2022-08-21T01:22:49.862Z,22.20
2022-08-21T01:25:20.496Z,22.00
2022-08-21T01:27:48.318Z,21.80
2022-08-21T01:30:17.890Z,21.80
2022-08-21T01:32:46.130Z,21.90
2022-08-21T01:35:14.749Z,21.80
2022-08-21T01:37:42.592Z,21.70
2022-08-21T01:40:13.062Z,21.80
2022-08-21T01:42:40.932Z,21.80
2022-08-21T01:45:09.852Z,21.80
2022-08-21T01:47:37.662Z,21.60
2022-08-21T01:50:05.887Z,21.70
2022-08-21T01:52:33.589Z,21.60
2022-08-21T01:55:01.383Z,21.40
2022-08-21T01:57:30.484Z,21.20
2022-08-21T01:59:58.193Z,21.20
2022-08-21T02:02:25.962Z,21.40
2022-08-21T02:04:53.718Z,21.50
2022-08-21T02:07:22.154Z,21.70
2022-08-21T02:09:50.242Z,21.90
2022-08-21T02:12:18.491Z,21.90
2022-08-21T02:14:47.540Z,21.60
2022-08-21T02:17:15.516Z,21.80
2022-08-21T02:19:43.211Z,21.60
2022-08-21T02:22:11.569Z,21.60
2022-08-21T02:24:50.609Z,21.70
2022-08-21T02:27:26.241Z,21.60
2022-08-21T02:29:56.920Z,21.00
2022-08-21T02:32:24.824Z,20.90
2022-08-21T02:34:53.171Z,20.80
2022-08-21T02:37:20.965Z,20.70
2022-08-21T02:39:49.015Z,20.60
2022-08-21T02:42:16.898Z,20.60
2022-08-21T02:44:44.883Z,20.50
2022-08-21T02:47:13.956Z,20.60
2022-08-21T02:49:41.943Z,20.30
2022-08-21T02:52:09.686Z,19.90
2022-08-21T02:54:37.453Z,19.90
2022-08-21T02:57:05.602Z,19.80
2022-08-21T02:59:33.443Z,19.90
2022-08-21T03:02:01.252Z,19.90
2022-08-21T03:04:30.433Z,19.90
2022-08-21T03:06:58.152Z,19.80
2022-08-21T03:09:26.438Z,20.10
2022-08-21T03:11:54.904Z,20.50
2022-08-21T03:14:22.772Z,20.80
2022-08-21T03:16:51.035Z,20.70
2022-08-21T03:19:18.790Z,21.00
2022-08-21T03:21:47.907Z,21.30
2022-08-21T03:24:15.635Z,21.50
2022-08-21T03:26:46.572Z,21.60
2022-08-21T03:29:14.330Z,21.50
2022-08-21T03:31:42.494Z,21.60
2022-08-21T03:34:11.671Z,21.40
2022-08-21T03:36:39.362Z,21.20
2022-08-21T03:39:08.422Z,21.20
2022-08-21T03:41:36.143Z,20.80
2022-08-21T03:44:04.078Z,20.90
2022-08-21T03:46:31.792Z,21.10
2022-08-21T03:48:59.573Z,21.10
2022-08-21T03:51:27.324Z,21.10
2022-08-21T03:53:55.426Z,21.20
2022-08-21T03:56:24.866Z,21.30
2022-08-21T03:58:52.631Z,21.10
2022-08-21T04:01:20.949Z,21.10
2022-08-21T04:03:48.755Z,21.20
2022-08-21T04:06:16.472Z,21.20
2022-08-21T04:08:44.544Z,21.40
2022-08-21T04:11:12.302Z,21.20
2022-08-21T04:13:44.718Z,20.80
2022-08-21T04:16:12.765Z,20.60
2022-08-21T04:18:40.687Z,20.80
2022-08-21T04:21:10.936Z,20.80
2022-08-21T04:23:39.095Z,20.70
2022-08-21T04:26:07.596Z,20.70
2022-08-21T04:28:35.361Z,20.80
2022-08-21T04:31:04.527Z,20.80
2022-08-21T04:33:32.341Z,20.80
2022-08-21T04:36:00.060Z,20.80
2022-08-21T04:38:28.246Z,21.00
2022-08-21T04:41:05.235Z,21.60
2022-08-21T04:43:33.230Z,21.40
2022-08-21T04:46:01.273Z,21.20
2022-08-21T04:48:30.309Z,21.10
2022-08-21T04:50:59.486Z,20.80
2022-08-21T04:53:30.395Z,20.90
2022-08-21T04:55:59.383Z,20.80
2022-08-21T04:58:28.110Z,21.10
2022-08-21T05:00:56.538Z,21.00
2022-08-21T05:03:24.610Z,20.90
2022-08-21T05:05:53.815Z,21.40
2022-08-21T05:08:24.117Z,21.30
2022-08-21T05:10:51.924Z,21.20
2022-08-21T05:13:19.845Z,21.30
2022-08-21T05:15:47.988Z,21.40
2022-08-21T05:18:15.704Z,21.60
2022-08-21T05:20:45.601Z,21.50
2022-08-21T05:23:15.168Z,21.50
2022-08-21T05:25:44.358Z,21.20
2022-08-21T05:28:13.870Z,21.10
2022-08-21T05:30:41.846Z,21.00
2022-08-21T05:33:09.620Z,20.80
2022-08-21T05:35:37.451Z,20.70
2022-08-21T05:38:05.571Z,21.10
2022-08-21T05:40:34.739Z,21.40
2022-08-21T05:43:02.821Z,21.20
2022-08-21T05:45:42.064Z,21.10
2022-08-21T05:48:12.790Z,20.80
2022-08-21T05:50:40.571Z,20.80
2022-08-21T05:53:08.579Z,21.00
2022-08-21T05:55:42.907Z,21.20
2022-08-21T05:58:13.542Z,21.40
2022-08-21T06:00:41.713Z,21.40
2022-08-21T06:03:12.382Z,21.60
2022-08-21T06:05:40.090Z,21.70
2022-08-21T06:08:07.836Z,21.80
2022-08-21T06:10:35.566Z,21.80
2022-08-21T06:13:05.565Z,21.90
2022-08-21T06:15:33.322Z,21.70
2022-08-21T06:18:01.071Z,21.20
2022-08-21T06:20:28.960Z,21.10
2022-08-21T06:22:56.780Z,21.00
2022-08-21T06:25:25.074Z,21.20
2022-08-21T06:27:52.859Z,21.30
2022-08-21T06:30:22.106Z,21.40
2022-08-21T06:32:49.953Z,21.40
2022-08-21T06:35:17.746Z,21.30
2022-08-21T06:37:45.488Z,21.20
2022-08-21T06:40:13.971Z,21.40
2022-08-21T06:42:42.843Z,21.20
2022-08-21T06:45:11.409Z,21.20
2022-08-21T06:47:40.494Z,21.30
2022-08-21T06:50:09.356Z,21.30
2022-08-21T06:52:37.569Z,21.20
2022-08-21T06:55:07.176Z,21.00
2022-08-21T06:57:35.120Z,21.00
2022-08-21T07:00:03.066Z,21.10
2022-08-21T07:02:30.884Z,21.10
2022-08-21T07:05:00.165Z,21.20
2022-08-21T07:07:27.895Z,21.20
2022-08-21T07:09:55.630Z,21.20
2022-08-21T07:12:23.393Z,21.10
2022-08-21T07:14:51.104Z,21.00
2022-08-21T07:17:18.851Z,21.10
2022-08-21T07:19:46.612Z,21.10
2022-08-21T07:22:18.176Z,21.10
2022-08-21T07:24:45.932Z,21.20
2022-08-21T07:27:13.790Z,21.20
2022-08-21T07:29:43.585Z,21.20
2022-08-21T07:32:11.435Z,21.40
2022-08-21T07:34:39.300Z,21.60
2022-08-21T07:37:10.049Z,21.90
2022-08-21T07:39:39.406Z,22.10
2022-08-21T07:42:08.538Z,22.20
2022-08-21T07:44:36.431Z,22.50
2022-08-21T07:47:04.221Z,22.50
2022-08-21T07:49:31.963Z,22.70
2022-08-21T07:51:59.807Z,22.90
2022-08-21T07:54:33.497Z,23.00
2022-08-21T07:57:03.859Z,23.20
2022-08-21T07:59:31.671Z,23.50
2022-08-21T08:01:59.421Z,23.60
2022-08-21T08:04:27.212Z,23.80
2022-08-21T08:06:55.105Z,23.90
2022-08-21T08:09:22.813Z,23.80
2022-08-21T08:11:50.611Z,23.90
2022-08-21T08:14:19.704Z,24.20
2022-08-21T08:16:54.244Z,24.40
2022-08-21T08:19:21.991Z,24.70
2022-08-21T08:21:50.419Z,24.70
2022-08-21T08:24:18.758Z,25.10
2022-08-21T08:26:53.631Z,25.10
2022-08-21T08:29:23.875Z,25.10
2022-08-21T08:31:51.841Z,25.10
2022-08-21T08:34:23.635Z,25.20
2022-08-21T08:36:53.380Z,25.30
2022-08-21T08:39:26.391Z,25.60
2022-08-21T08:41:58.640Z,25.60
2022-08-21T08:44:29.155Z,25.60
2022-08-21T08:46:59.016Z,26.00
2022-08-21T08:49:32.608Z,26.20
2022-08-21T08:52:02.362Z,26.50
2022-08-21T08:54:32.467Z,26.50
2022-08-21T08:57:00.849Z,26.60
2022-08-21T08:59:35.132Z,26.60
2022-08-21T09:02:02.889Z,26.60
2022-08-21T09:04:30.985Z,26.60
2022-08-21T09:07:03.520Z,26.80
2022-08-21T09:09:35.998Z,27.00
2022-08-21T09:12:05.937Z,27.10
2022-08-21T09:14:52.578Z,27.30
2022-08-21T09:17:24.919Z,27.80
2022-08-21T09:19:59.261Z,28.00
2022-08-21T09:22:31.571Z,28.20
2022-08-21T09:25:04.319Z,28.40
2022-08-21T09:27:33.473Z,28.20
2022-08-21T09:30:02.982Z,28.60
2022-08-21T09:32:36.977Z,28.70
2022-08-21T09:35:07.914Z,29.10
2022-08-21T09:37:37.165Z,28.70
2022-08-21T09:40:17.404Z,28.50
2022-08-21T09:42:55.847Z,28.40
2022-08-21T09:45:25.406Z,28.20
2022-08-21T09:47:53.283Z,28.20
2022-08-21T09:50:22.562Z,28.60
2022-08-21T09:52:52.295Z,28.80
2022-08-21T09:55:43.899Z,29.00
2022-08-21T09:58:12.068Z,29.50
2022-08-21T10:00:41.189Z,30.00
2022-08-21T10:03:19.628Z,30.20
2022-08-21T10:05:58.518Z,30.50
2022-08-21T10:08:28.334Z,30.30
2022-08-21T10:10:57.738Z,30.50
2022-08-21T10:13:34.866Z,30.70
2022-08-21T10:16:12.222Z,30.60
2022-08-21T10:18:42.343Z,30.80
2022-08-21T10:21:13.797Z,31.20
2022-08-21T10:23:47.632Z,31.40
2022-08-21T10:26:22.962Z,31.30
2022-08-21T10:28:58.898Z,31.00
2022-08-21T10:31:32.638Z,31.00
2022-08-21T10:34:07.013Z,31.00
2022-08-21T10:36:36.929Z,30.50
2022-08-21T10:39:35.222Z,30.30
2022-08-21T10:42:03.499Z,30.30
2022-08-21T10:44:33.584Z,30.00
2022-08-21T10:47:06.540Z,30.00
2022-08-21T10:49:40.241Z,29.60
2022-08-21T10:52:17.991Z,29.70
2022-08-21T10:54:51.636Z,30.10
2022-08-21T10:57:31.969Z,30.70
2022-08-21T11:00:03.771Z,31.10
2022-08-21T11:02:35.253Z,31.40
2022-08-21T11:05:07.596Z,31.20
2022-08-21T11:07:37.403Z,31.10
2022-08-21T11:10:07.851Z,31.30
2022-08-21T11:12:41.569Z,31.00
2022-08-21T11:15:28.986Z,30.10
2022-08-21T11:18:03.786Z,29.20
2022-08-21T11:20:35.134Z,29.60
2022-08-21T11:23:05.966Z,29.90
2022-08-21T11:25:37.223Z,30.40
2022-08-21T11:28:12.191Z,31.00
2022-08-21T11:30:47.195Z,31.50
2022-08-21T11:33:22.867Z,31.70
2022-08-21T11:35:53.597Z,32.20
2022-08-21T11:38:25.951Z,32.60
2022-08-21T11:41:04.155Z,32.60
2022-08-21T11:43:36.917Z,32.80
2022-08-21T11:46:10.801Z,33.30
2022-08-21T11:48:46.744Z,33.60
2022-08-21T11:51:15.761Z,33.90
2022-08-21T11:53:54.092Z,34.00
2022-08-21T11:56:25.764Z,34.30
2022-08-21T11:58:55.298Z,34.40
2022-08-21T12:01:29.210Z,34.30
2022-08-21T12:04:01.640Z,34.50
2022-08-21T12:06:32.286Z,34.80
2022-08-21T12:09:01.627Z,35.20
2022-08-21T12:11:30.999Z,35.20
2022-08-21T12:14:00.381Z,35.40
2022-08-21T12:16:32.347Z,35.60
2022-08-21T12:19:08.797Z,35.10
2022-08-21T12:21:49.143Z,34.80
2022-08-21T12:24:22.491Z,34.70
2022-08-21T12:26:51.294Z,34.50
2022-08-21T12:29:23.983Z,34.60
2022-08-21T12:31:53.744Z,35.10
2022-08-21T12:34:24.049Z,35.00
2022-08-21T12:36:59.498Z,34.60
2022-08-21T12:39:29.390Z,34.50
2022-08-21T12:42:02.039Z,34.50
2022-08-21T12:44:34.139Z,34.30
2022-08-21T12:47:04.514Z,34.30
2022-08-21T12:49:34.970Z,34.20
2022-08-21T12:52:04.267Z,33.90
2022-08-21T12:54:32.767Z,34.40
2022-08-21T12:57:01.878Z,35.10
2022-08-21T12:59:30.266Z,34.80
2022-08-21T13:01:59.460Z,34.80
2022-08-21T13:04:31.332Z,34.80
2022-08-21T13:07:00.731Z,34.70
2022-08-21T13:09:29.994Z,34.60
2022-08-21T13:11:58.798Z,34.60
2022-08-21T13:14:29.778Z,34.60
2022-08-21T13:16:59.757Z,34.20
2022-08-21T13:19:27.679Z,33.80
2022-08-21T13:21:55.452Z,33.30
2022-08-21T13:24:41.773Z,33.00
2022-08-21T13:27:21.395Z,32.50
2022-08-21T13:29:53.610Z,32.70
2022-08-21T13:32:24.847Z,33.20
2022-08-21T13:34:53.954Z,33.50
2022-08-21T13:37:23.703Z,33.70
2022-08-21T13:39:54.225Z,33.20
2022-08-21T13:42:24.930Z,33.00
2022-08-21T13:44:53.786Z,33.20
2022-08-21T13:47:21.675Z,33.20
2022-08-21T13:49:50.768Z,33.60
2022-08-21T13:52:20.226Z,33.50
2022-08-21T13:54:56.298Z,33.90
2022-08-21T13:57:27.878Z,34.10
2022-08-21T14:00:11.184Z,34.20
2022-08-21T14:02:40.776Z,34.10
2022-08-21T14:05:08.675Z,34.20
2022-08-21T14:07:37.971Z,34.80
2022-08-21T14:10:08.263Z,34.70
2022-08-21T14:12:40.176Z,34.30
2022-08-21T14:15:08.549Z,33.30
2022-08-21T14:17:38.568Z,32.70
2022-08-21T14:20:07.661Z,32.20
2022-08-21T14:22:39.109Z,31.70
2022-08-21T14:25:10.440Z,31.60
2022-08-21T14:27:39.423Z,31.40
2022-08-21T14:30:12.294Z,31.20
2022-08-21T14:32:44.817Z,31.00
2022-08-21T14:35:14.407Z,31.30
2022-08-21T14:37:43.563Z,31.20
2022-08-21T14:40:13.875Z,31.30
2022-08-21T14:42:42.384Z,31.00
2022-08-21T14:45:14.051Z,31.00
2022-08-21T14:47:42.287Z,31.10
2022-08-21T14:50:10.467Z,31.20
2022-08-21T14:52:38.417Z,31.30
2022-08-21T14:55:06.719Z,31.40
2022-08-21T14:57:36.028Z,31.70
2022-08-21T15:00:04.170Z,32.20
2022-08-21T15:02:32.179Z,32.70
2022-08-21T15:04:59.887Z,33.20
2022-08-21T15:07:27.589Z,33.70
2022-08-21T15:09:55.360Z,34.00
2022-08-21T15:12:23.646Z,34.40
2022-08-21T15:14:53.676Z,34.60
2022-08-21T15:17:21.644Z,34.50
2022-08-21T15:19:49.403Z,34.50
2022-08-21T15:22:19.048Z,34.40
2022-08-21T15:24:56.000Z,34.10
2022-08-21T15:27:23.730Z,34.10
2022-08-21T15:29:55.033Z,34.20
2022-08-21T15:32:24.300Z,34.00
2022-08-21T15:34:52.403Z,34.10
2022-08-21T15:37:20.762Z,34.10
2022-08-21T15:39:53.967Z,34.40
2022-08-21T15:42:22.863Z,34.40
2022-08-21T15:44:50.941Z,34.30
2022-08-21T15:47:21.323Z,34.10
2022-08-21T15:49:49.071Z,34.00
2022-08-21T15:52:17.574Z,33.70
2022-08-21T15:54:45.319Z,33.50
2022-08-21T15:57:13.938Z,32.90
2022-08-21T15:59:42.967Z,32.80
2022-08-21T16:02:13.989Z,32.60
2022-08-21T16:04:43.768Z,32.20
2022-08-21T16:07:11.747Z,31.90
2022-08-21T16:09:39.614Z,31.30
2022-08-21T16:12:07.894Z,30.80
2022-08-21T16:14:37.100Z,30.60
2022-08-21T16:17:05.910Z,30.50
2022-08-21T16:19:34.236Z,30.40
2022-08-21T16:22:03.291Z,30.10
2022-08-21T16:24:31.020Z,30.00
2022-08-21T16:26:58.900Z,29.90
2022-08-21T16:29:28.380Z,29.70
2022-08-21T16:31:57.292Z,29.70
2022-08-21T16:34:25.167Z,29.70
2022-08-21T16:36:52.959Z,29.70
2022-08-21T16:39:22.231Z,29.60
2022-08-21T16:41:50.841Z,29.40
2022-08-21T16:44:18.762Z,29.30
2022-08-21T16:46:46.782Z,29.30
2022-08-21T16:49:14.565Z,29.10
2022-08-21T16:51:43.386Z,29.00
2022-08-21T16:54:11.151Z,28.80
2022-08-21T16:56:43.589Z,28.60
2022-08-21T16:59:13.714Z,28.40
2022-08-21T17:01:42.515Z,28.40
2022-08-21T17:04:10.260Z,28.10
2022-08-21T17:06:37.986Z,28.00
2022-08-21T17:09:06.087Z,27.90
2022-08-21T17:11:37.390Z,27.80
2022-08-21T17:14:08.320Z,27.70
2022-08-21T17:16:36.341Z,27.50
2022-08-21T17:19:04.490Z,27.50
2022-08-21T17:21:32.221Z,27.40
2022-08-21T17:23:59.951Z,27.40
2022-08-21T17:26:27.781Z,27.30
2022-08-21T17:28:55.766Z,27.20
2022-08-21T17:31:24.970Z,27.20
2022-08-21T17:33:56.444Z,27.10
2022-08-21T17:36:25.143Z,27.10
2022-08-21T17:38:53.283Z,27.00
2022-08-21T17:41:22.326Z,26.80
2022-08-21T17:43:51.476Z,26.70
2022-08-21T17:46:20.810Z,26.60
2022-08-21T17:48:49.963Z,26.50
2022-08-21T17:51:17.858Z,26.30
2022-08-21T17:53:45.952Z,26.20
2022-08-21T17:56:14.704Z,26.20
2022-08-21T17:58:43.715Z,26.10
2022-08-21T18:01:11.928Z,26.00
2022-08-21T18:03:39.758Z,25.90
2022-08-21T18:06:09.154Z,25.80
2022-08-21T18:08:36.883Z,25.70
2022-08-21T18:11:05.203Z,25.70
2022-08-21T18:13:35.299Z,25.60
2022-08-21T18:16:03.650Z,25.50
2022-08-21T18:18:34.628Z,25.40
2022-08-21T18:21:02.329Z,25.30
2022-08-21T18:23:44.488Z,25.30
2022-08-21T18:26:14.348Z,25.20
2022-08-21T18:28:43.577Z,25.10
2022-08-21T18:31:11.733Z,25.10
2022-08-21T18:33:40.295Z,25.00
2022-08-21T18:36:25.135Z,25.00
2022-08-21T18:38:54.971Z,24.90
2022-08-21T18:41:23.646Z,24.70
2022-08-21T18:43:51.346Z,24.60
2022-08-21T18:46:19.171Z,24.50
2022-08-21T18:48:46.902Z,24.50
2022-08-21T18:51:14.653Z,24.40
2022-08-21T18:53:44.159Z,24.40
2022-08-21T18:56:16.812Z,24.30
2022-08-21T18:58:45.890Z,24.30
2022-08-21T19:01:13.800Z,24.20
2022-08-21T19:03:41.570Z,24.20
2022-08-21T19:06:11.789Z,24.10
2022-08-21T19:08:39.743Z,24.20
2022-08-21T19:11:07.496Z,24.10
2022-08-21T19:13:36.907Z,24.10
2022-08-21T19:16:05.343Z,24.10
2022-08-21T19:18:39.623Z,24.00
2022-08-21T19:21:07.627Z,23.90
2022-08-21T19:23:35.595Z,23.90
2022-08-21T19:26:04.575Z,23.80
2022-08-21T19:28:34.057Z,23.50
2022-08-21T19:31:05.561Z,23.40
2022-08-21T19:33:34.524Z,23.30
2022-08-21T19:36:03.011Z,23.30
2022-08-21T19:38:30.791Z,23.30
2022-08-21T19:40:59.812Z,23.30
2022-08-21T19:43:29.277Z,23.20
2022-08-21T19:45:57.990Z,23.10
2022-08-21T19:48:27.351Z,23.10
2022-08-21T19:50:55.085Z,23.10
2022-08-21T19:53:22.805Z,23.10
2022-08-21T19:55:50.861Z,23.00
2022-08-21T19:58:24.720Z,22.90
2022-08-21T20:00:52.508Z,22.90
2022-08-21T20:03:21.299Z,22.90
2022-08-21T20:05:50.634Z,22.80
2022-08-21T20:08:20.522Z,22.70
2022-08-21T20:10:49.931Z,22.70
2022-08-21T20:13:21.370Z,22.80
2022-08-21T20:15:50.052Z,22.80
2022-08-21T20:18:18.128Z,22.70
2022-08-21T20:20:45.906Z,22.70
2022-08-21T20:23:15.709Z,22.70
2022-08-21T20:25:45.250Z,22.60
2022-08-21T20:28:14.016Z,22.50
2022-08-21T20:30:46.761Z,22.40
2022-08-21T20:33:15.223Z,22.50
2022-08-21T20:35:45.257Z,22.50
2022-08-21T20:38:13.384Z,22.60
2022-08-21T20:40:43.360Z,22.70
2022-08-21T20:43:13.011Z,22.70
2022-08-21T20:45:41.360Z,22.50
2022-08-21T20:48:11.894Z,22.50
2022-08-21T20:50:41.751Z,22.30
2022-08-21T20:53:15.554Z,22.20
2022-08-21T20:55:46.090Z,22.10
2022-08-21T20:58:19.684Z,22.10
2022-08-21T21:00:49.681Z,22.10
2022-08-21T21:03:30.289Z,22.00
2022-08-21T21:06:01.408Z,21.90
2022-08-21T21:08:31.562Z,21.90
2022-08-21T21:11:02.911Z,21.90
2022-08-21T21:13:37.054Z,21.80
2022-08-21T21:16:06.559Z,21.70
2022-08-21T21:18:37.396Z,21.70
2022-08-21T21:21:11.323Z,21.70
2022-08-21T21:23:43.008Z,21.60
2022-08-21T21:26:15.088Z,21.60
2022-08-21T21:28:46.858Z,21.60
2022-08-21T21:31:14.613Z,21.50
2022-08-21T21:33:42.725Z,21.50
2022-08-21T21:36:13.467Z,21.50
2022-08-21T21:38:51.513Z,21.50
2022-08-21T21:41:24.950Z,21.50
2022-08-21T21:43:59.166Z,21.60
2022-08-21T21:46:37.923Z,21.60
2022-08-21T21:49:14.186Z,21.60
2022-08-21T21:51:51.611Z,21.70
2022-08-21T21:54:35.319Z,21.60
2022-08-21T21:57:09.976Z,21.70
2022-08-21T21:59:47.912Z,21.70
2022-08-21T22:02:20.327Z,21.70
2022-08-21T22:04:55.840Z,21.70
2022-08-21T22:07:26.155Z,21.60
2022-08-21T22:09:58.781Z,21.60
2022-08-21T22:12:49.734Z,21.50
2022-08-21T22:15:26.497Z,21.50
2022-08-21T22:17:58.981Z,21.40
2022-08-21T22:20:30.933Z,21.40
2022-08-21T22:23:00.599Z,21.40
2022-08-21T22:25:30.614Z,21.40
2022-08-21T22:28:01.489Z,21.40
2022-08-21T22:30:42.361Z,21.40
2022-08-21T22:33:15.174Z,21.40
2022-08-21T22:35:42.910Z,21.40
2022-08-21T22:38:17.314Z,21.40
2022-08-21T22:40:45.970Z,21.40
2022-08-21T22:43:18.256Z,21.40
2022-08-21T22:45:58.708Z,21.30
2022-08-21T22:48:48.160Z,21.30
2022-08-21T22:51:30.130Z,21.30
2022-08-21T22:54:00.636Z,21.20
2022-08-21T22:56:31.621Z,21.20
2022-08-21T22:59:02.715Z,21.20
2022-08-21T23:01:33.275Z,21.20
2022-08-21T23:04:13.523Z,21.20
2022-08-21T23:06:43.888Z,21.10
2022-08-21T23:09:19.262Z,21.10
2022-08-21T23:11:50.688Z,21.00
2022-08-21T23:14:21.162Z,21.00
2022-08-21T23:16:53.172Z,21.00
2022-08-21T23:19:26.102Z,21.00
2022-08-21T23:21:57.663Z,21.00
2022-08-21T23:24:38.911Z,21.00
2022-08-21T23:27:18.628Z,20.90
2022-08-21T23:29:52.197Z,20.90
2022-08-21T23:32:35.323Z,20.90
2022-08-21T23:35:11.367Z,20.90
2022-08-21T23:37:51.744Z,20.80
2022-08-21T23:40:35.604Z,20.80
2022-08-21T23:43:07.826Z,20.80
2022-08-21T23:45:48.931Z,20.80
2022-08-21T23:48:29.532Z,20.80
2022-08-21T23:51:00.864Z,20.70
2022-08-21T23:53:33.870Z,20.70
2022-08-21T23:56:16.502Z,20.70
2022-08-21T23:58:50.251Z,20.80
